Time;durP1;ratioP1;P1;durP2;ratioP2;P2;SDS_P1;SDS_P2;PMS_P1;PMS_P2;Temp;Humidity;BMP_temperature;BMP_pressure;BME280_temperature;BME280_humidity;BME280_pressure;Samples;Min_cycle;Max_cycle;Signal;HPM_P1;HPM_P2
2023/03/03 00:00:50;;;;;;;359.95;30.45;;;2.80;99.90;;;;;;5058456;28;20048;-89
2023/03/03 00:03:21;;;;;;;400.38;29.70;;;2.70;99.90;;;;;;5058403;28;20039;-90
2023/03/03 00:05:47;;;;;;;262.95;25.25;;;2.80;99.90;;;;;;5057203;28;20044;-89
2023/03/03 00:08:12;;;;;;;395.05;34.20;;;2.40;99.90;;;;;;5057812;28;20097;-89
2023/03/03 00:10:38;;;;;;;528.88;38.83;;;2.40;99.90;;;;;;5057963;28;20043;-90
2023/03/03 00:13:22;;;;;;;256.05;23.48;;;2.80;99.90;;;;;;5057016;28;20051;-91
2023/03/03 00:15:48;;;;;;;421.98;31.02;;;2.50;99.90;;;;;;5058610;28;20505;-90
2023/03/03 00:18:32;;;;;;;391.08;29.80;;;2.10;99.90;;;;;;5057400;28;20052;-90
2023/03/03 00:21:00;;;;;;;348.23;29.15;;;2.10;99.90;;;;;;5054504;28;20040;-91
2023/03/03 00:23:34;;;;;;;237.10;22.55;;;2.40;99.90;;;;;;5055103;28;20400;-90
2023/03/03 00:26:00;;;;;;;237.32;21.77;;;2.00;99.90;;;;;;5054475;28;20079;-90
2023/03/03 00:28:29;;;;;;;295.35;25.42;;;3.00;99.90;;;;;;5055057;28;20110;-90
2023/03/03 00:30:58;;;;;;;222.85;22.27;;;2.00;99.90;;;;;;5054473;28;20072;-90
2023/03/03 00:33:31;;;;;;;310.48;24.00;;;2.50;99.90;;;;;;5054434;28;20416;-91
2023/03/03 00:36:20;;;;;;;261.13;22.23;;;3.00;99.90;;;;;;5054739;28;20045;-90
2023/03/03 00:38:47;;;;;;;348.10;24.33;;;2.00;99.90;;;;;;5020823;28;20063;-90
2023/03/03 00:41:23;;;;;;;213.02;19.88;;;2.30;99.90;;;;;;5053783;28;20048;-90
2023/03/03 00:43:50;;;;;;;426.88;27.17;;;1.90;99.90;;;;;;5054486;28;20488;-90
2023/03/03 00:46:19;;;;;;;235.27;20.52;;;2.90;99.90;;;;;;5053884;28;20048;-90
2023/03/03 00:48:46;;;;;;;218.65;19.75;;;2.50;99.90;;;;;;5054302;28;20478;-90
2023/03/03 00:51:21;;;;;;;233.27;19.17;;;2.60;99.90;;;;;;5054383;28;20090;-90
2023/03/03 00:53:48;;;;;;;238.32;19.23;;;1.80;99.90;;;;;;5036387;28;20032;-90
2023/03/03 00:56:14;;;;;;;172.65;17.13;;;2.20;99.90;;;;;;5054188;28;20507;-91
2023/03/03 00:58:39;;;;;;;172.32;16.42;;;1.70;99.90;;;;;;5053589;28;20075;-89
2023/03/03 01:01:05;;;;;;;176.40;16.77;;;2.20;99.90;;;;;;5053494;28;20057;-90
2023/03/03 01:03:31;;;;;;;171.45;17.20;;;2.40;99.90;;;;;;5054648;28;20069;-90
2023/03/03 01:05:57;;;;;;;185.93;16.90;;;2.30;99.90;;;;;;5054042;28;20510;-90
2023/03/03 01:08:23;;;;;;;221.15;19.83;;;2.20;99.90;;;;;;5036299;28;20450;-90
2023/03/03 01:10:55;;;;;;;170.98;16.60;;;2.20;99.90;;;;;;5053981;28;20036;-90
2023/03/03 01:13:25;;;;;;;340.33;20.77;;;1.60;99.90;;;;;;5053759;28;20063;-89
2023/03/03 01:15:51;;;;;;;156.40;16.48;;;1.90;99.90;;;;;;5052970;28;20052;-90
2023/03/03 01:18:17;;;;;;;155.82;16.85;;;2.10;99.90;;;;;;5053711;28;20064;-90
2023/03/03 01:20:43;;;;;;;218.52;18.70;;;1.90;99.90;;;;;;5056700;28;20511;-90
2023/03/03 01:23:09;;;;;;;218.35;18.02;;;1.60;99.90;;;;;;5056307;28;20044;-90
2023/03/03 01:25:35;;;;;;;159.25;16.70;;;1.50;99.90;;;;;;5056461;28;20495;-90
2023/03/03 01:28:01;;;;;;;210.63;18.40;;;1.50;99.90;;;;;;5057033;28;20140;-90
2023/03/03 01:30:26;;;;;;;267.83;20.42;;;1.90;99.90;;;;;;5055902;28;20131;-90
2023/03/03 01:32:52;;;;;;;141.90;15.60;;;2.30;99.90;;;;;;5057163;28;20048;-90
2023/03/03 01:35:18;;;;;;;333.95;18.23;;;1.50;99.90;;;;;;5055931;28;20462;-90
2023/03/03 01:37:44;;;;;;;231.25;17.05;;;1.50;99.90;;;;;;5057133;28;20570;-90
2023/03/03 01:40:15;;;;;;;164.10;15.40;;;1.80;99.90;;;;;;5055692;28;20040;-90
2023/03/03 01:42:41;;;;;;;263.25;18.63;;;2.40;99.90;;;;;;5055437;28;20047;-90
2023/03/03 01:45:23;;;;;;;151.38;13.32;;;1.40;99.90;;;;;;5056693;28;20047;-90
2023/03/03 01:47:57;;;;;;;281.58;18.83;;;1.40;99.90;;;;;;5056913;28;20050;-90
2023/03/03 01:50:32;;;;;;;451.45;19.88;;;1.40;99.90;;;;;;5055862;28;20044;-90
2023/03/03 01:53:01;;;;;;;319.88;14.95;;;1.30;99.90;;;;;;5057427;28;20043;-90
2023/03/03 01:55:33;;;;;;;329.33;15.55;;;1.30;99.90;;;;;;5055276;28;20089;-90
2023/03/03 01:58:12;;;;;;;315.92;15.98;;;1.30;99.90;;;;;;5056586;28;20554;-89
2023/03/03 02:00:41;;;;;;;373.40;18.80;;;1.20;99.90;;;;;;5056765;28;20094;-90
2023/03/03 02:03:08;;;;;;;316.05;16.75;;;1.90;99.90;;;;;;5056370;28;20040;-90
2023/03/03 02:05:34;;;;;;;165.25;14.85;;;1.00;99.90;;;;;;5052600;28;20062;-90
2023/03/03 02:08:01;;;;;;;248.90;16.48;;;1.00;99.90;;;;;;5053662;28;20100;-89
2023/03/03 02:10:28;;;;;;;264.52;17.40;;;2.00;99.90;;;;;;5051855;28;20044;-90
2023/03/03 02:12:55;;;;;;;237.73;16.27;;;1.00;99.90;;;;;;5053158;28;20040;-90
2023/03/03 02:15:22;;;;;;;205.07;14.13;;;1.00;99.90;;;;;;5052081;28;20097;-90
2023/03/03 02:17:52;;;;;;;227.15;15.60;;;0.90;99.90;;;;;;5052442;28;20044;-89
2023/03/03 02:20:31;;;;;;;117.90;12.02;;;1.90;99.90;;;;;;5049459;28;20045;-90
2023/03/03 02:23:06;;;;;;;167.93;12.43;;;0.90;99.90;;;;;;5033014;28;20048;-90
2023/03/03 02:25:42;;;;;;;235.43;14.63;;;0.80;99.90;;;;;;5031963;28;20113;-91
2023/03/03 02:28:09;;;;;;;195.98;11.75;;;1.80;99.90;;;;;;5033086;28;20076;-90
2023/03/03 02:30:37;;;;;;;217.73;13.10;;;1.80;99.90;;;;;;5032921;28;20055;-90
2023/03/03 02:33:04;;;;;;;235.00;13.98;;;1.00;99.90;;;;;;5031948;28;20047;-90
2023/03/03 02:35:34;;;;;;;235.05;12.15;;;0.60;99.90;;;;;;5033976;28;20152;-90
2023/03/03 02:38:18;;;;;;;193.88;12.40;;;1.40;99.90;;;;;;5037215;28;20053;-90
2023/03/03 02:40:57;;;;;;;144.35;11.20;;;0.50;99.90;;;;;;5035475;28;20049;-90
2023/03/03 02:43:28;;;;;;;123.05;10.50;;;0.50;99.90;;;;;;5036967;28;20104;-90
2023/03/03 02:45:53;;;;;;;171.85;11.40;;;0.40;99.90;;;;;;5035465;28;20041;-90
2023/03/03 02:48:19;;;;;;;296.95;13.88;;;0.40;99.90;;;;;;5036255;28;20060;-90
2023/03/03 02:50:45;;;;;;;195.43;12.07;;;1.30;99.90;;;;;;5036462;28;20041;-89
2023/03/03 02:53:10;;;;;;;198.85;12.55;;;0.30;99.90;;;;;;5035731;28;20066;-90
2023/03/03 02:55:36;;;;;;;186.68;11.45;;;0.40;99.90;;;;;;5035921;28;20044;-89
2023/03/03 02:58:02;;;;;;;94.28;9.82;;;0.60;99.90;;;;;;5037237;28;20471;-89
2023/03/03 03:00:27;;;;;;;150.20;12.25;;;0.20;99.90;;;;;;5035179;28;20048;-90
2023/03/03 03:02:53;;;;;;;103.10;10.88;;;0.60;99.90;;;;;;5036743;28;20135;-89
2023/03/03 03:05:19;;;;;;;129.23;11.93;;;1.00;99.90;;;;;;5035490;28;20496;-89
2023/03/03 03:07:44;;;;;;;86.63;9.95;;;0.00;99.90;;;;;;5035910;28;20048;-89
2023/03/03 03:10:10;;;;;;;129.25;12.80;;;0.00;99.90;;;;;;5034922;28;20547;-89
2023/03/03 03:12:36;;;;;;;116.00;11.85;;;0.50;99.90;;;;;;5036072;28;20036;-90
2023/03/03 03:15:02;;;;;;;83.72;10.88;;;0.60;99.90;;;;;;5035333;28;20037;-89
2023/03/03 03:17:27;;;;;;;68.78;10.32;;;-0.10;99.90;;;;;;5035695;28;20496;-89
2023/03/03 03:19:53;;;;;;;80.32;10.43;;;0.00;99.90;;;;;;5035952;28;20507;-90
2023/03/03 03:22:19;;;;;;;68.30;10.65;;;0.50;99.90;;;;;;5035378;28;20045;-89
2023/03/03 03:24:44;;;;;;;79.15;11.43;;;-0.20;99.90;;;;;;5035474;28;20096;-90
2023/03/03 03:27:10;;;;;;;53.85;10.00;;;0.80;99.90;;;;;;5035653;28;20061;-88
2023/03/03 03:29:36;;;;;;;34.08;9.65;;;0.30;99.90;;;;;;5034023;28;20071;-89
2023/03/03 03:32:01;;;;;;;32.33;10.43;;;0.40;99.90;;;;;;5035538;28;20143;-89
2023/03/03 03:34:27;;;;;;;42.40;10.45;;;-0.30;99.90;;;;;;5035823;28;20032;-89
2023/03/03 03:36:53;;;;;;;21.67;9.25;;;-0.10;99.90;;;;;;5034534;28;20056;-89
2023/03/03 03:39:19;;;;;;;20.63;9.65;;;0.70;99.90;;;;;;5034919;28;20045;-89
2023/03/03 03:41:44;;;;;;;54.35;11.48;;;0.30;99.90;;;;;;5034491;28;20493;-89
2023/03/03 03:44:10;;;;;;;61.65;13.05;;;0.50;99.90;;;;;;5035342;28;20033;-89
2023/03/03 03:46:36;;;;;;;27.58;10.85;;;-0.60;99.90;;;;;;5035477;28;20074;-89
2023/03/03 03:49:02;;;;;;;44.65;11.60;;;0.10;99.90;;;;;;5034128;28;20037;-90
2023/03/03 03:51:27;;;;;;;123.88;13.50;;;-0.30;99.90;;;;;;5035814;28;20095;-89
2023/03/03 03:53:53;;;;;;;26.77;10.23;;;0.00;99.90;;;;;;5033945;28;20112;-89
2023/03/03 03:56:18;;;;;;;89.25;12.57;;;-0.70;99.90;;;;;;5034659;28;20091;-89
2023/03/03 03:58:44;;;;;;;37.58;11.05;;;0.00;99.90;;;;;;5034603;28;20045;-89
2023/03/03 04:01:10;;;;;;;41.03;10.18;;;-0.60;99.90;;;;;;5034899;28;20507;-89
2023/03/03 04:03:35;;;;;;;50.60;10.25;;;-0.30;99.90;;;;;;5034509;28;20301;-89
2023/03/03 04:06:01;;;;;;;91.57;11.48;;;-0.90;99.90;;;;;;5034626;28;20060;-89
2023/03/03 04:08:27;;;;;;;66.70;10.05;;;-0.40;99.90;;;;;;5034829;28;20408;-89
2023/03/03 04:10:52;;;;;;;58.90;10.70;;;-0.50;99.90;;;;;;5034420;28;20040;-90
2023/03/03 04:13:18;;;;;;;26.45;10.90;;;-0.40;99.90;;;;;;5035244;28;20045;-90
2023/03/03 04:15:44;;;;;;;24.27;12.07;;;-0.80;99.90;;;;;;5035281;28;20048;-90
2023/03/03 04:18:09;;;;;;;28.13;10.20;;;-0.90;99.90;;;;;;5033878;28;20113;-91
2023/03/03 04:20:35;;;;;;;28.58;8.18;;;-1.00;99.90;;;;;;5046298;28;20047;-91
2023/03/03 04:23:01;;;;;;;20.52;9.88;;;-0.70;99.90;;;;;;5034799;28;20225;-91
2023/03/03 04:25:27;;;;;;;11.98;7.43;;;-0.60;99.90;;;;;;5034262;28;20045;-91
2023/03/03 04:27:53;;;;;;;13.68;7.95;;;-0.20;99.90;;;;;;5034725;28;20045;-91
2023/03/03 04:30:19;;;;;;;16.58;10.65;;;-1.00;99.90;;;;;;5034612;28;20087;-91
2023/03/03 04:32:44;;;;;;;42.22;11.77;;;-1.10;99.90;;;;;;5034286;28;20049;-91
2023/03/03 04:35:10;;;;;;;14.68;9.90;;;0.00;99.90;;;;;;5035147;28;20041;-91
2023/03/03 04:37:37;;;;;;;63.05;11.38;;;-1.00;99.90;;;;;;5034588;28;20067;-91
2023/03/03 04:40:05;;;;;;;18.55;10.90;;;-0.70;99.90;;;;;;5033879;28;20059;-92
2023/03/03 04:42:31;;;;;;;15.50;9.93;;;-1.30;99.90;;;;;;5034862;28;20083;-91
2023/03/03 04:44:56;;;;;;;13.77;9.68;;;-0.60;99.90;;;;;;5035036;28;20080;-92
2023/03/03 04:47:22;;;;;;;20.55;9.50;;;-1.30;99.90;;;;;;5034126;28;20131;-91
2023/03/03 04:49:48;;;;;;;41.25;8.05;;;-1.20;99.90;;;;;;5034569;28;20041;-90
2023/03/03 04:52:13;;;;;;;53.22;8.43;;;-0.90;99.90;;;;;;5034496;28;20052;-90
2023/03/03 04:54:39;;;;;;;41.35;7.38;;;-0.60;99.90;;;;;;5033815;28;20119;-90
2023/03/03 04:57:06;;;;;;;8.32;5.35;;;-0.20;99.90;;;;;;5034255;28;20489;-90
2023/03/03 04:59:32;;;;;;;21.67;6.63;;;-1.10;99.90;;;;;;5033293;28;20080;-91
2023/03/03 05:01:57;;;;;;;10.45;6.57;;;-1.50;99.90;;;;;;5037042;28;20049;-90
2023/03/03 05:04:23;;;;;;;8.85;5.20;;;-0.50;99.90;;;;;;5036139;28;20047;-89
2023/03/03 05:06:49;;;;;;;9.05;6.00;;;-1.40;99.90;;;;;;5036378;28;20076;-89
2023/03/03 05:09:14;;;;;;;8.10;5.07;;;-1.50;99.90;;;;;;5037379;28;20093;-90
2023/03/03 05:11:40;;;;;;;9.68;5.07;;;-0.50;99.90;;;;;;5037688;28;20063;-90
2023/03/03 05:14:07;;;;;;;10.45;6.82;;;-1.00;99.90;;;;;;5036393;28;20509;-90
2023/03/03 05:16:32;;;;;;;8.07;5.00;;;-0.60;99.90;;;;;;5037368;28;20069;-90
2023/03/03 05:18:58;;;;;;;9.73;5.80;;;-0.90;99.90;;;;;;5038364;28;20055;-89
2023/03/03 05:21:24;;;;;;;7.20;4.50;;;-1.00;99.90;;;;;;5056352;28;20044;-89
2023/03/03 05:23:50;;;;;;;10.13;6.55;;;-0.70;99.90;;;;;;5055822;28;20047;-89
2023/03/03 05:26:15;;;;;;;12.32;7.30;;;-0.50;99.90;;;;;;5055871;28;20040;-88
2023/03/03 05:28:41;;;;;;;13.10;7.93;;;-1.00;99.90;;;;;;5053506;28;20621;-88
2023/03/03 05:31:07;;;;;;;15.52;8.88;;;-0.90;99.90;;;;;;5053214;28;20051;-91
2023/03/03 05:33:33;;;;;;;12.45;7.63;;;-0.60;99.90;;;;;;5045307;28;20045;-90
2023/03/03 05:35:59;;;;;;;12.55;7.93;;;-1.00;99.90;;;;;;5052896;28;20483;-89
2023/03/03 05:38:25;;;;;;;11.70;7.70;;;-0.50;99.90;;;;;;5052818;28;20535;-89
2023/03/03 05:40:50;;;;;;;13.50;7.65;;;-0.80;99.90;;;;;;5052946;28;20044;-89
2023/03/03 05:43:16;;;;;;;13.88;8.40;;;-1.10;99.90;;;;;;5051991;28;20131;-89
2023/03/03 05:45:42;;;;;;;10.30;5.43;;;-0.70;99.90;;;;;;5052935;28;20048;-88
2023/03/03 05:48:09;;;;;;;7.25;4.63;;;-0.30;99.90;;;;;;5052743;28;20082;-88
2023/03/03 05:50:35;;;;;;;8.18;5.22;;;-1.50;99.90;;;;;;5051605;28;20044;-88
2023/03/03 05:53:01;;;;;;;14.02;6.40;;;-1.10;99.90;;;;;;5052841;28;20048;-89
2023/03/03 05:55:27;;;;;;;9.70;5.30;;;-0.80;99.90;;;;;;5052212;28;20045;-88
2023/03/03 05:57:53;;;;;;;9.38;5.72;;;-1.60;99.90;;;;;;5052124;28;20051;-88
2023/03/03 06:00:19;;;;;;;10.98;6.30;;;-1.00;99.90;;;;;;5052719;28;20063;-88
2023/03/03 06:02:45;;;;;;;10.88;6.22;;;-1.80;99.90;;;;;;5051773;28;20087;-88
2023/03/03 06:05:11;;;;;;;11.55;6.90;;;-0.70;99.90;;;;;;5052552;28;20084;-88
2023/03/03 06:07:37;;;;;;;9.32;6.20;;;-1.60;99.90;;;;;;5052078;28;20096;-88
2023/03/03 06:10:03;;;;;;;9.90;6.53;;;-1.60;99.90;;;;;;5052761;28;20044;-88
2023/03/03 06:12:29;;;;;;;11.65;6.82;;;-1.80;99.90;;;;;;5052941;28;20044;-87
2023/03/03 06:14:55;;;;;;;18.83;8.07;;;-0.70;99.90;;;;;;5069207;28;20036;-87
2023/03/03 06:17:21;;;;;;;17.35;8.77;;;-1.00;99.90;;;;;;5053690;28;20055;-87
2023/03/03 06:19:47;;;;;;;14.77;9.43;;;-1.20;99.90;;;;;;5051537;28;20037;-88
2023/03/03 06:22:13;;;;;;;13.32;8.15;;;-0.90;99.90;;;;;;5053750;28;20048;-87
2023/03/03 06:24:39;;;;;;;16.10;9.20;;;-0.80;99.90;;;;;;5052571;28;20124;-88
2023/03/03 06:27:04;;;;;;;14.05;8.52;;;-1.80;99.90;;;;;;5051570;28;20141;-88
2023/03/03 06:29:30;;;;;;;15.15;8.85;;;-1.40;99.90;;;;;;5052993;28;20127;-88
2023/03/03 06:31:56;;;;;;;13.07;7.85;;;-1.70;99.90;;;;;;5051238;28;20128;-87
2023/03/03 06:34:21;;;;;;;14.65;8.10;;;-1.50;99.90;;;;;;5053692;28;20040;-87
2023/03/03 06:36:47;;;;;;;13.70;8.52;;;-0.80;99.90;;;;;;5051655;28;20484;-87
2023/03/03 06:39:13;;;;;;;15.00;8.50;;;-1.70;99.90;;;;;;5050231;28;20565;-87
2023/03/03 06:41:39;;;;;;;12.98;8.15;;;-1.00;99.90;;;;;;5051731;28;20071;-86
2023/03/03 06:44:04;;;;;;;13.77;8.32;;;-0.50;99.90;;;;;;5050447;28;20033;-87
2023/03/03 06:46:30;;;;;;;12.40;7.70;;;-0.50;99.90;;;;;;5052361;28;20047;-87
2023/03/03 06:48:56;;;;;;;18.30;7.55;;;-0.20;99.90;;;;;;5051966;28;20062;-88
2023/03/03 06:51:25;;;;;;;13.63;7.72;;;-1.40;99.90;;;;;;5053554;28;20094;-88
2023/03/03 06:53:54;;;;;;;11.13;7.50;;;-1.30;99.90;;;;;;5053434;28;20040;-89
2023/03/03 06:56:20;;;;;;;12.13;7.22;;;-0.60;99.90;;;;;;5051362;28;20048;-89
2023/03/03 06:58:47;;;;;;;15.75;8.60;;;-0.80;99.90;;;;;;5051142;28;20499;-88
2023/03/03 07:01:16;;;;;;;14.05;7.80;;;-1.10;99.90;;;;;;5053682;28;20040;-88
2023/03/03 07:03:42;;;;;;;21.45;8.90;;;0.00;99.90;;;;;;5052019;28;20049;-88
2023/03/03 07:06:20;;;;;;;14.55;9.02;;;0.30;99.90;;;;;;5051717;28;20079;-88
2023/03/03 07:08:46;;;;;;;16.20;9.13;;;-0.20;99.90;;;;;;5048760;28;20040;-87
2023/03/03 07:11:16;;;;;;;23.33;8.93;;;-0.80;99.90;;;;;;5052094;28;20465;-88
2023/03/03 07:13:47;;;;;;;21.35;9.68;;;-0.20;99.90;;;;;;5052525;28;20048;-88
2023/03/03 07:16:14;;;;;;;14.15;9.48;;;0.40;99.90;;;;;;5053050;28;20060;-88
2023/03/03 07:18:50;;;;;;;22.15;9.55;;;0.20;99.90;;;;;;5053165;28;20036;-88
2023/03/03 07:21:20;;;;;;;20.15;10.65;;;-0.50;99.90;;;;;;5051876;28;20060;-88
2023/03/03 07:23:48;;;;;;;24.85;10.60;;;-0.30;99.90;;;;;;5057145;28;20056;-89
2023/03/03 07:26:21;;;;;;;22.48;11.55;;;0.60;99.90;;;;;;5059368;28;20134;-91
2023/03/03 07:28:54;;;;;;;20.05;12.02;;;0.00;99.90;;;;;;5058861;28;20043;-90
2023/03/03 07:31:35;;;;;;;17.95;11.05;;;0.80;99.90;;;;;;5058904;28;20063;-92
2023/03/03 07:34:03;;;;;;;21.23;11.75;;;0.90;99.90;;;;;;5060259;28;20044;-91
2023/03/03 07:36:34;;;;;;;20.55;10.55;;;0.70;99.90;;;;;;5060322;28;20114;-96
2023/03/03 07:39:11;;;;;;;20.08;12.02;;;1.90;99.90;;;;;;5058373;28;20028;-92
2023/03/03 07:41:36;;;;;;;22.85;10.80;;;0.80;99.90;;;;;;5059113;28;20052;-94
2023/03/03 07:44:04;;;;;;;25.77;12.23;;;1.80;99.90;;;;;;5059473;28;20114;-94
2023/03/03 07:46:41;;;;;;;24.10;11.25;;;1.10;99.90;;;;;;5058873;28;20109;-94
2023/03/03 07:49:23;;;;;;;23.08;12.70;;;1.10;99.90;;;;;;5059772;28;20040;-96
2023/03/03 07:51:54;;;;;;;35.58;12.10;;;1.20;99.90;;;;;;5059004;28;20052;-95
2023/03/03 07:54:25;;;;;;;21.85;11.63;;;1.30;99.90;;;;;;5063376;28;20087;-95
2023/03/03 07:56:51;;;;;;;21.15;11.82;;;1.90;99.90;;;;;;5061445;28;20105;-95
2023/03/03 07:59:23;;;;;;;22.98;11.68;;;1.40;99.90;;;;;;5059656;28;20040;-95
2023/03/03 08:01:57;;;;;;;23.00;13.30;;;1.70;99.90;;;;;;5065867;28;20044;-96
2023/03/03 08:04:27;;;;;;;25.38;12.65;;;1.90;99.90;;;;;;5064835;28;20067;-96
2023/03/03 08:06:56;;;;;;;29.63;12.65;;;1.50;99.90;;;;;;5059855;28;20083;-95
2023/03/03 08:09:49;;;;;;;22.83;12.77;;;1.50;99.90;;;;;;5058244;28;20127;-96
2023/03/03 08:12:30;;;;;;;31.80;14.15;;;1.60;99.90;;;;;;5059239;28;20040;-96
2023/03/03 08:15:10;;;;;;;20.70;12.98;;;1.70;99.90;;;;;;5062264;28;20488;-96
2023/03/03 08:17:44;;;;;;;20.83;12.35;;;1.70;99.90;;;;;;5080189;28;20051;-96
2023/03/03 08:20:34;;;;;;;26.60;12.55;;;2.10;99.90;;;;;;5096960;28;20052;-96
2023/03/03 08:23:00;;;;;;;27.40;13.07;;;1.80;99.90;;;;;;5078091;28;20040;-96
2023/03/03 08:25:25;;;;;;;25.55;12.38;;;1.90;99.90;;;;;;5068490;28;20067;-96
2023/03/03 08:27:51;;;;;;;27.42;11.77;;;2.00;99.90;;;;;;5052799;28;20139;-96
2023/03/03 08:30:17;;;;;;;24.70;12.98;;;2.00;99.90;;;;;;5068738;28;20093;-96
2023/03/03 08:32:44;;;;;;;20.25;11.45;;;2.00;99.90;;;;;;5070172;28;20138;-96
2023/03/03 08:35:10;;;;;;;23.77;11.23;;;2.10;99.90;;;;;;5071943;28;20047;-96
2023/03/03 08:37:35;;;;;;;21.98;11.70;;;2.20;99.90;;;;;;5068133;28;20048;-96
2023/03/03 08:40:01;;;;;;;17.58;11.35;;;2.50;99.90;;;;;;5060458;28;20055;-96
2023/03/03 08:42:28;;;;;;;25.17;11.38;;;2.20;99.90;;;;;;5068717;28;20086;-93
2023/03/03 08:44:55;;;;;;;19.23;11.23;;;2.90;99.90;;;;;;5059565;28;20036;-94
2023/03/03 08:47:20;;;;;;;28.83;10.80;;;2.70;99.90;;;;;;5059529;28;20148;-95
2023/03/03 08:49:46;;;;;;;26.25;11.75;;;2.50;99.90;;;;;;5058001;28;20133;-95
2023/03/03 08:52:12;;;;;;;26.50;11.27;;;2.60;99.90;;;;;;5057773;28;20090;-95
2023/03/03 08:54:38;;;;;;;34.33;14.25;;;2.70;99.90;;;;;;5057277;28;20101;-92
2023/03/03 08:57:03;;;;;;;28.48;15.45;;;3.20;99.90;;;;;;5058213;28;20541;-93
2023/03/03 08:59:29;;;;;;;27.63;15.23;;;2.60;99.90;;;;;;5057780;28;20080;-93
2023/03/03 09:01:55;;;;;;;23.10;13.05;;;3.00;99.90;;;;;;5057492;28;20404;-93
2023/03/03 09:04:20;;;;;;;32.08;14.45;;;2.60;99.90;;;;;;5058052;28;20040;-93
2023/03/03 09:06:46;;;;;;;22.67;14.70;;;3.80;99.90;;;;;;5057015;28;20048;-94
2023/03/03 09:09:12;;;;;;;25.48;13.68;;;3.30;99.90;;;;;;5060232;28;20097;-93
2023/03/03 09:11:37;;;;;;;25.08;16.05;;;2.90;99.90;;;;;;5058463;28;20138;-93
2023/03/03 09:14:11;;;;;;;28.02;14.73;;;3.70;99.90;;;;;;5057016;28;20105;-94
2023/03/03 09:16:39;;;;;;;30.27;14.60;;;3.50;99.90;;;;;;5057216;28;20048;-94
2023/03/03 09:19:21;;;;;;;23.02;14.02;;;3.20;99.90;;;;;;5054801;28;20052;-94
2023/03/03 09:21:49;;;;;;;26.98;11.30;;;3.40;99.90;;;;;;5037775;28;20052;-93
2023/03/03 09:24:25;;;;;;;24.33;12.00;;;3.50;99.90;;;;;;5037014;28;20128;-93
2023/03/03 09:26:52;;;;;;;26.40;12.55;;;4.30;99.90;;;;;;5037784;28;20055;-93
2023/03/03 09:29:29;;;;;;;27.25;12.45;;;4.20;99.90;;;;;;5037327;28;20123;-93
2023/03/03 09:31:59;;;;;;;22.95;11.18;;;3.80;99.90;;;;;;5037767;28;20044;-92
2023/03/03 09:34:39;;;;;;;20.67;10.32;;;4.20;99.90;;;;;;5037206;28;20090;-93
2023/03/03 09:37:22;;;;;;;22.70;10.85;;;4.00;99.90;;;;;;5037411;28;20052;-91
2023/03/03 09:39:50;;;;;;;27.13;9.60;;;4.10;99.90;;;;;;5036751;28;20070;-92
2023/03/03 09:42:30;;;;;;;20.67;9.45;;;4.20;99.90;;;;;;5036746;28;20040;-92
2023/03/03 09:45:03;;;;;;;22.88;10.48;;;4.30;99.90;;;;;;5037103;28;20052;-92
2023/03/03 09:47:41;;;;;;;18.08;9.68;;;4.40;99.90;;;;;;5036845;28;20101;-89
2023/03/03 09:50:23;;;;;;;18.23;10.10;;;4.50;99.90;;;;;;5036960;28;20049;-92
2023/03/03 09:53:07;;;;;;;22.05;10.15;;;4.60;99.90;;;;;;5036863;28;20044;-92
2023/03/03 09:55:55;;;;;;;20.27;10.52;;;4.80;99.90;;;;;;5035822;28;20080;-91
2023/03/03 09:58:44;;;;;;;22.98;9.85;;;4.90;99.90;;;;;;5036786;28;20048;-91
2023/03/03 10:01:27;;;;;;;19.30;8.18;;;5.10;99.90;;;;;;5036858;28;20047;-91
2023/03/03 10:04:07;;;;;;;19.95;7.13;;;5.20;99.90;;;;;;5035952;28;20050;-92
2023/03/03 10:06:37;;;;;;;14.50;7.95;;;5.40;99.90;;;;;;5036610;28;20091;-92
2023/03/03 10:09:39;;;;;;;18.95;8.32;;;5.50;99.90;;;;;;5036024;28;20055;-92
2023/03/03 10:12:27;;;;;;;14.85;7.85;;;5.60;99.90;;;;;;5035640;28;20460;-91
2023/03/03 10:15:12;;;;;;;13.35;5.50;;;5.70;99.90;;;;;;5035559;28;20098;-92
2023/03/03 10:17:52;;;;;;;9.65;4.95;;;5.80;99.90;;;;;;5036076;28;20048;-91
2023/03/03 10:20:32;;;;;;;10.23;4.18;;;5.90;99.90;;;;;;5045208;28;20041;-91
2023/03/03 10:23:14;;;;;;;11.40;3.42;;;5.90;99.90;;;;;;5036637;28;20190;-92
2023/03/03 10:25:42;;;;;;;9.07;3.88;;;6.00;99.90;;;;;;5035566;28;20047;-91
2023/03/03 10:28:29;;;;;;;10.05;3.10;;;6.00;99.90;;;;;;5035811;28;20044;-91
2023/03/03 10:31:17;;;;;;;9.32;3.20;;;6.00;99.90;;;;;;5035566;28;20048;-92
2023/03/03 10:33:54;;;;;;;5.57;2.60;;;6.10;99.90;;;;;;5035852;28;20045;-92
2023/03/03 10:36:21;;;;;;;11.55;3.25;;;6.10;99.90;;;;;;5035914;28;20056;-92
2023/03/03 10:39:00;;;;;;;8.93;3.38;;;6.20;99.90;;;;;;5035719;28;20045;-92
2023/03/03 10:41:44;;;;;;;5.82;1.85;;;6.30;99.90;;;;;;5036484;28;20044;-92
2023/03/03 10:44:36;;;;;;;8.65;2.78;;;6.30;99.90;;;;;;5035221;28;20045;-90
2023/03/03 10:47:23;;;;;;;10.43;1.90;;;6.40;99.90;;;;;;5036897;28;20033;-90
2023/03/03 10:50:04;;;;;;;3.22;1.05;;;6.50;99.90;;;;;;5036541;28;20036;-89
2023/03/03 10:52:43;;;;;;;6.30;1.35;;;6.60;99.90;;;;;;5037545;28;20127;-90
2023/03/03 10:55:24;;;;;;;11.38;1.50;;;6.60;99.90;;;;;;5036342;28;20052;-91
2023/03/03 10:58:04;;;;;;;7.65;1.55;;;6.70;99.90;;;;;;5054197;28;20054;-92
2023/03/03 11:00:45;;;;;;;6.25;1.10;;;6.70;99.90;;;;;;5061055;28;20052;-90
2023/03/03 11:03:32;;;;;;;8.88;0.70;;;6.70;99.90;;;;;;5060568;28;20518;-90
2023/03/03 11:06:00;;;;;;;8.02;1.05;;;6.70;99.90;;;;;;5060690;28;20056;-90
2023/03/03 11:08:29;;;;;;;4.28;0.95;;;6.70;99.90;;;;;;5060663;28;20048;-90
2023/03/03 11:11:21;;;;;;;5.68;1.05;;;6.70;99.90;;;;;;5061014;28;20051;-91
2023/03/03 11:13:51;;;;;;;2.67;0.73;;;6.80;99.90;;;;;;5059230;28;20048;-89
2023/03/03 11:16:33;;;;;;;2.58;0.70;;;6.90;99.90;;;;;;5058697;28;20844;-88
2023/03/03 11:19:03;;;;;;;10.45;1.38;;;7.00;99.90;;;;;;5058862;28;20044;-88
2023/03/03 11:21:42;;;;;;;3.28;0.55;;;7.00;99.90;;;;;;5059036;28;20064;-89
2023/03/03 11:24:30;;;;;;;4.30;0.73;;;7.00;99.90;;;;;;5058485;28;20491;-91
2023/03/03 11:27:11;;;;;;;6.93;1.20;;;7.10;99.90;;;;;;5058929;28;20069;-88
2023/03/03 11:29:59;;;;;;;6.68;0.65;;;7.10;99.90;;;;;;5058564;28;20040;-88
2023/03/03 11:32:49;;;;;;;4.13;0.70;;;7.10;99.90;;;;;;5057971;28;20392;-88
2023/03/03 11:35:23;;;;;;;3.03;0.70;;;7.10;99.90;;;;;;5057196;28;20506;-89
2023/03/03 11:38:09;;;;;;;6.40;0.80;;;7.10;99.90;;;;;;5058039;28;20166;-88
2023/03/03 11:40:49;;;;;;;4.75;0.80;;;7.20;99.90;;;;;;5073808;28;20432;-88
2023/03/03 11:43:27;;;;;;;7.53;1.33;;;7.20;99.90;;;;;;5057902;28;20036;-89
2023/03/03 11:46:02;;;;;;;4.05;0.98;;;7.20;99.90;;;;;;5058630;28;20361;-91
2023/03/03 11:48:36;;;;;;;5.68;0.82;;;7.20;99.90;;;;;;5059495;28;20044;-90
2023/03/03 11:51:06;;;;;;;6.28;0.90;;;7.20;99.90;;;;;;5059715;28;20054;-89
2023/03/03 11:53:53;;;;;;;5.53;0.80;;;7.20;99.90;;;;;;5059591;28;20487;-87
2023/03/03 11:56:23;;;;;;;4.47;0.50;;;7.10;99.90;;;;;;5059180;28;20047;-89
2023/03/03 11:59:13;;;;;;;3.67;0.60;;;7.10;99.90;;;;;;5057878;28;20087;-82
2023/03/03 12:01:48;;;;;;;2.67;0.80;;;7.10;99.90;;;;;;5056139;28;20048;-85
2023/03/03 12:04:21;;;;;;;8.38;0.90;;;7.30;99.90;;;;;;5072296;28;20044;-86
2023/03/03 12:07:04;;;;;;;5.55;0.88;;;7.40;99.90;;;;;;5072816;28;20479;-85
2023/03/03 12:09:51;;;;;;;7.57;0.60;;;7.50;99.90;;;;;;5054315;28;20048;-86
2023/03/03 12:12:33;;;;;;;7.30;0.95;;;7.50;99.90;;;;;;5055489;28;20048;-84
2023/03/03 12:15:12;;;;;;;6.00;1.07;;;7.50;99.90;;;;;;5056059;28;20492;-85
2023/03/03 12:18:05;;;;;;;7.22;1.00;;;7.40;99.90;;;;;;5055424;28;20055;-84
2023/03/03 12:20:48;;;;;;;10.15;1.27;;;7.40;99.90;;;;;;5069052;28;20475;-84
2023/03/03 12:23:32;;;;;;;10.73;1.25;;;7.40;99.90;;;;;;5050967;28;20048;-84
2023/03/03 12:26:11;;;;;;;9.65;1.38;;;7.50;99.90;;;;;;5035254;28;20048;-84
2023/03/03 12:28:42;;;;;;;9.05;1.17;;;7.50;99.90;;;;;;5052190;28;20071;-84
2023/03/03 12:31:17;;;;;;;6.00;1.17;;;7.60;99.90;;;;;;5041017;28;20044;-85
2023/03/03 12:33:49;;;;;;;6.75;1.05;;;7.60;99.90;;;;;;5053150;28;20130;-85
2023/03/03 12:36:26;;;;;;;10.65;1.40;;;7.70;99.90;;;;;;5052552;28;20499;-84
2023/03/03 12:39:10;;;;;;;13.80;1.40;;;7.70;99.90;;;;;;5052263;28;20044;-85
2023/03/03 12:41:42;;;;;;;;;;;7.80;99.90;;;;;;5062544;28;20040;-84
2023/03/03 12:44:24;;;;;;;9.55;1.00;;;7.80;99.90;;;;;;5056413;28;19924;-84
2023/03/03 12:47:05;;;;;;;5.40;0.85;;;7.80;99.90;;;;;;5049081;28;20043;-84
2023/03/03 12:49:45;;;;;;;8.65;1.08;;;7.90;99.90;;;;;;5039534;28;20514;-84
2023/03/03 12:52:34;;;;;;;13.98;1.27;;;8.00;99.90;;;;;;5064503;28;20062;-84
2023/03/03 12:55:23;;;;;;;12.52;1.40;;;8.00;99.90;;;;;;5045423;28;20438;-85
2023/03/03 12:57:55;;;;;;;16.70;2.30;;;8.00;99.90;;;;;;5057156;28;20183;-85